Mayer, AZ

8:34 PM MST on August 27, 2014 (GMT -0700)
Spring Valley | Change Station
CLOSE
Current Station
Personal Weather Station
Location: Mayer, AZ
Elevation: 3917 ft
Nearby Weather Stations

Elev 3917 ft 34.34 °N, 112.16 °W | Updated 2 minutes ago

Partly Cloudy
Partly Cloudy
74.0 °F
Feels Like 77 °F
N
0.0
Wind Variable Wind from NW
Gusts 1.0 mph

Today
High -- | Low -- °F
--% Chance of Precip.
Yesterday
High -- | Low -- °F
Precip. -- in
5:58 AM 7:01 PM
Waxing Crescent, 6% visible
Pressure 30.04 in
Visibility 10.0 miles
Clouds Few 10000 ft
Heat Index 77 °F
Dew Point 58 °F
Humidity 57%
Rainfall 0.00 in
Snow Depth Not available.
UV 0 out of 12
Pollen 6.10 out of 12
Air Quality Not available.
Flu Activity Not available.
METAR KPRC 280253Z 22003KT 10SM FEW100 20/12 A3023 RMK AO2 SLP173 T02000122 53009 $

More Conditions Fewer Conditions

Pressure 30.04 in
Visibility 10.0 miles
Clouds Few 10000 ft
Heat Index 77 °F
Dew Point 58 °F
Humidity 57%
Rainfall 0.00 in
Snow Depth Not available.
UV 0 out of 12
Pollen 6.10 out of 12
Air Quality Not available.
Flu Activity Not available.
METAR KPRC 280253Z 22003KT 10SM FEW100 20/12 A3023 RMK AO2 SLP173 T02000122 53009 $

More Conditions Fewer Conditions

10-Day Weather Forecast

Almanac

Astronomy

Aug. 27, 2014 Rise Set
Actual Time 5:58 AM MST 7:01 PM MST
Civil Twilight 5:32 AM MST 7:26 PM MST
Nautical Twilight 5:01 AM MST 7:57 PM MST
Astronomical Twilight 4:30 AM MST 8:29 PM MST
Moon 7:50 AM MST (8/27) 8:03 PM MST (8/27)
Length of Visible Light 13h 54m
Length of Day
13h 02m
Tomorrow will be 2m 1s shorter.
Waxing Crescent, 6% of the Moon is Illuminated
Today
Waxing Crescent
Sep 2
First Quarter
Sep 8
Full
Sep 15
Last Quarter
Sep 24
New

Today's Extremes

State Highs State Lows

Community

WunderPhotos

Upload Photos

1,747,896 photos uploaded!

Nearby

Snow Depth

Station Depth Elevation
White Horse Lake 0 in 7180 ft
Promontory 0 in 7930 ft
Workman Creek 1 in 6900 ft
Snowslide Canyon 1 in 9730 ft
Maverick Fork 0 in 9200 ft

Earthquake Activity

City Distance Mag. Time & Date
No recent earthquake activity has been reported nearby.
Minimum magnitude displayed is 2.5.

Coastal Water Temperatures

Place Temperature
No Stations Reporting

Nearby Weather Stations